Accueil
METAR-TAF:

METAR-TAF

Aéroports :

Turin, Italie

latitude: 45-05-20N, longitude: 007-36-20E, altitude: 288 m

Observation

Le bulletin a été fait il y a 32 minutes, à 09:50 UTC
Vent 5 kt de ouest
Température 4°C
Humidité 100%
Pression 1013 hPa
Visibilité: 7000 m
Nuages fragmentés à une hauteur de 1300 ft
Ciel couvert à une hauteur de 4000 ft
pluie

METAR: LIMA 240950Z 28005KT 7000 RA BKN013 OVC040 04/04 Q1013

Heure: 11:22 (10:22 UTC)


TAF: absent

Observations et prévisions météorologiques de plus de 4000 aéroports (messages METAR et TAF).

Les stations disponibles sont représentées par des disques jaunes et rouges sur la carte.

Passer la souris dessus pour voir le nom de la station.

Cliquer dessus pour voir les observations et prévisions météorologiques.

Pour changer de carte: cliquez sur les boutons verts avec une croix noire pour zoomer, sur le bouton vert avec un tiret pour effectuer un zoom arrière, ou sur les flèches vertes pour les cartes adjacentes.


METAR-TAF: